首页
METAR-TAF:

METAR-TAF

机场 :

圣加仑, 瑞士

纬度: 47-29-06N, 经度: 009-33-43E, 海拔: 398米

当前天气观测

该预报发布于13分钟前的01:50 UTC
风速2节,风向多变
温度 18°C
湿度 94%
气压 1024 hPa
能见度10公里或以上
少量云层高于7000英尺

METAR: LSZR 220150Z AUTO VRB02KT 9999 FEW070 18/17 Q1024

时间: 04:03 (02:03 UTC)

预报

该预报发布于11小时和38分钟前的14:25 UTC
预报有效从21日的 15点(UTC)到 21日的 24点(UTC)
风速5节,风向东北
能见度10公里或以上
少量云层高于7000英尺
成为
从 21日的 16点(UTC)到 21日的 19点(UTC)
能见度10公里或以上
1500米以下无云,无积雨云

TAF: LSZR 211425Z 2115/2124 04005KT 9999 FEW070 BECMG 2116/2119 CAVOK

超过4000个机场的气象观测和天气预报(METAR&TAF报告)。

可查询的气象台以黄色和红色小点在地图上表示。

将鼠标移到小点上方,可查看气象台名称。

然后点击查看天气观测和预报。

如需切换地图:点击带黑十字的绿色按钮放大地图;点击带横线的绿色按钮缩小地图;或者点击绿色箭头查看邻近地区的地图。


METAR-TAF: